sensor_id;sensor_type;location;lat;lon;timestamp;P1;durP1;ratioP1;P2;durP2;ratioP2
31686;SDS011;18285;51.330;4.946;2022-07-23T00:17:28;1.80;;;1.70;;
31686;SDS011;18285;51.330;4.946;2022-07-23T00:41:39;1.80;;;1.70;;
31686;SDS011;18285;51.330;4.946;2022-07-23T01:05:50;1.60;;;1.50;;
31686;SDS011;18285;51.330;4.946;2022-07-23T01:30:00;2.33;;;1.80;;
31686;SDS011;18285;51.330;4.946;2022-07-23T01:54:12;1.40;;;1.30;;
31686;SDS011;18285;51.330;4.946;2022-07-23T02:18:23;1.50;;;1.40;;
31686;SDS011;18285;51.330;4.946;2022-07-23T02:42:33;1.73;;;1.10;;
31686;SDS011;18285;51.330;4.946;2022-07-23T03:06:47;1.40;;;1.30;;
31686;SDS011;18285;51.330;4.946;2022-07-23T03:30:58;1.40;;;1.30;;
31686;SDS011;18285;51.330;4.946;2022-07-23T03:55:08;1.40;;;1.30;;
31686;SDS011;18285;51.330;4.946;2022-07-23T04:19:19;1.30;;;1.20;;
31686;SDS011;18285;51.330;4.946;2022-07-23T04:43:30;1.27;;;1.17;;
31686;SDS011;18285;51.330;4.946;2022-07-23T05:07:40;1.63;;;1.40;;
31686;SDS011;18285;51.330;4.946;2022-07-23T05:31:51;1.40;;;1.30;;
31686;SDS011;18285;51.330;4.946;2022-07-23T05:56:02;1.10;;;1.00;;
31686;SDS011;18285;51.330;4.946;2022-07-23T06:20:12;0.97;;;0.97;;
31686;SDS011;18285;51.330;4.946;2022-07-23T06:44:23;0.90;;;0.90;;
31686;SDS011;18285;51.330;4.946;2022-07-23T07:08:34;0.73;;;0.70;;
31686;SDS011;18285;51.330;4.946;2022-07-23T07:32:45;0.77;;;0.77;;
31686;SDS011;18285;51.330;4.946;2022-07-23T07:56:55;0.80;;;0.80;;
31686;SDS011;18285;51.330;4.946;2022-07-23T08:21:06;0.70;;;0.70;;
31686;SDS011;18285;51.330;4.946;2022-07-23T08:45:18;0.80;;;0.70;;
31686;SDS011;18285;51.330;4.946;2022-07-23T09:09:30;1.10;;;1.00;;
31686;SDS011;18285;51.330;4.946;2022-07-23T09:33:41;1.97;;;1.07;;
31686;SDS011;18285;51.330;4.946;2022-07-23T09:57:52;1.40;;;0.93;;
31686;SDS011;18285;51.330;4.946;2022-07-23T10:22:09;1.20;;;0.90;;
31686;SDS011;18285;51.330;4.946;2022-07-23T10:46:24;1.10;;;0.80;;
31686;SDS011;18285;51.330;4.946;2022-07-23T11:11:08;0.90;;;0.70;;
31686;SDS011;18285;51.330;4.946;2022-07-23T11:35:21;0.90;;;0.70;;
31686;SDS011;18285;51.330;4.946;2022-07-23T11:59:33;0.55;;;0.55;;
31686;SDS011;18285;51.330;4.946;2022-07-23T12:23:48;0.65;;;0.63;;
31686;SDS011;18285;51.330;4.946;2022-07-23T12:48:05;0.70;;;0.70;;
31686;SDS011;18285;51.330;4.946;2022-07-23T13:12:17;0.50;;;0.50;;
31686;SDS011;18285;51.330;4.946;2022-07-23T13:36:27;0.57;;;0.57;;
31686;SDS011;18285;51.330;4.946;2022-07-23T14:00:39;0.60;;;0.60;;
31686;SDS011;18285;51.330;4.946;2022-07-23T14:24:51;0.57;;;0.57;;
31686;SDS011;18285;51.330;4.946;2022-07-23T14:49:02;0.40;;;0.40;;
31686;SDS011;18285;51.330;4.946;2022-07-23T15:13:13;0.47;;;0.47;;
31686;SDS011;18285;51.330;4.946;2022-07-23T15:37:24;0.53;;;0.50;;
31686;SDS011;18285;51.330;4.946;2022-07-23T16:01:34;0.60;;;0.60;;
31686;SDS011;18285;51.330;4.946;2022-07-23T16:25:45;0.60;;;0.60;;
31686;SDS011;18285;51.330;4.946;2022-07-23T16:49:56;0.40;;;0.40;;
31686;SDS011;18285;51.330;4.946;2022-07-23T17:14:07;0.40;;;0.40;;
31686;SDS011;18285;51.330;4.946;2022-07-23T17:38:18;0.50;;;0.50;;
31686;SDS011;18285;51.330;4.946;2022-07-23T18:02:30;0.50;;;0.50;;
31686;SDS011;18285;51.330;4.946;2022-07-23T18:26:41;0.40;;;0.40;;
31686;SDS011;18285;51.330;4.946;2022-07-23T18:50:51;0.70;;;0.70;;
31686;SDS011;18285;51.330;4.946;2022-07-23T19:15:03;0.63;;;0.63;;
31686;SDS011;18285;51.330;4.946;2022-07-23T19:39:15;0.70;;;0.70;;
31686;SDS011;18285;51.330;4.946;2022-07-23T20:03:25;0.70;;;0.70;;
31686;SDS011;18285;51.330;4.946;2022-07-23T20:27:36;0.63;;;0.63;;
31686;SDS011;18285;51.330;4.946;2022-07-23T20:51:47;0.80;;;0.80;;
31686;SDS011;18285;51.330;4.946;2022-07-23T21:15:58;0.70;;;0.70;;
31686;SDS011;18285;51.330;4.946;2022-07-23T21:40:09;0.77;;;0.77;;
31686;SDS011;18285;51.330;4.946;2022-07-23T22:04:21;0.70;;;0.70;;
31686;SDS011;18285;51.330;4.946;2022-07-23T22:28:32;0.70;;;0.70;;
31686;SDS011;18285;51.330;4.946;2022-07-23T22:52:42;0.90;;;0.90;;
31686;SDS011;18285;51.330;4.946;2022-07-23T23:16:54;1.10;;;1.10;;
31686;SDS011;18285;51.330;4.946;2022-07-23T23:41:05;1.10;;;0.90;;
